Time;durP1;ratioP1;P1;durP2;ratioP2;P2;SDS_P1;SDS_P2;PMS_P1;PMS_P2;Temp;Humidity;BMP_temperature;BMP_pressure;BME280_temperature;BME280_humidity;BME280_pressure;Samples;Min_cycle;Max_cycle;Signal;HPM_P1;HPM_P2
2021/11/08 00:01:40;;;;;;;9.50;2.72;;;8.90;99.90;;;;;;6239422;23;20263;-86
2021/11/08 00:04:07;;;;;;;11.15;2.92;;;8.90;99.90;;;;;;6239708;23;20171;-86
2021/11/08 00:06:36;;;;;;;7.72;2.15;;;8.90;99.90;;;;;;6238232;23;20160;-85
2021/11/08 00:09:04;;;;;;;8.55;3.38;;;9.00;99.90;;;;;;6238884;23;20203;-86
2021/11/08 00:11:33;;;;;;;7.18;2.90;;;8.90;99.90;;;;;;6241898;23;20199;-86
2021/11/08 00:14:01;;;;;;;10.88;3.25;;;8.90;99.90;;;;;;6241185;23;20190;-86
2021/11/08 00:16:33;;;;;;;6.80;2.58;;;8.80;99.90;;;;;;6240409;23;20179;-84
2021/11/08 00:19:22;;;;;;;8.52;2.63;;;8.90;99.90;;;;;;6241865;23;20170;-86
2021/11/08 00:21:50;;;;;;;12.70;3.05;;;8.80;99.90;;;;;;6242605;23;20251;-86
2021/11/08 00:24:23;;;;;;;14.63;3.10;;;8.80;99.90;;;;;;6232720;23;20171;-86
2021/11/08 00:26:51;;;;;;;15.88;3.25;;;8.80;99.90;;;;;;6226542;23;20178;-84
2021/11/08 00:29:18;;;;;;;11.27;3.25;;;8.90;99.90;;;;;;6225301;23;20179;-85
2021/11/08 00:31:45;;;;;;;13.30;3.15;;;8.90;99.90;;;;;;6224901;23;20196;-84
2021/11/08 00:34:14;;;;;;;19.92;2.83;;;8.90;99.90;;;;;;6224293;23;20246;-83
2021/11/08 00:36:41;;;;;;;7.97;2.70;;;8.80;99.90;;;;;;6223234;23;20466;-84
2021/11/08 00:39:09;;;;;;;10.38;3.53;;;8.80;99.90;;;;;;6224295;23;20187;-85
2021/11/08 00:41:36;;;;;;;12.02;2.67;;;8.80;99.90;;;;;;6222154;23;20655;-84
2021/11/08 00:44:04;;;;;;;14.15;2.90;;;8.80;99.90;;;;;;6222406;23;20164;-84
2021/11/08 00:46:31;;;;;;;9.52;2.85;;;8.80;99.90;;;;;;6222346;23;20180;-84
2021/11/08 00:48:58;;;;;;;7.18;2.03;;;8.80;99.90;;;;;;6222326;23;20183;-84
2021/11/08 00:51:27;;;;;;;12.93;3.22;;;8.80;99.90;;;;;;6223458;23;20191;-85
2021/11/08 00:53:54;;;;;;;15.13;3.20;;;8.80;99.90;;;;;;6222828;23;20206;-85
2021/11/08 00:56:23;;;;;;;11.55;3.03;;;8.70;99.90;;;;;;6224896;23;20176;-84
2021/11/08 00:58:51;;;;;;;16.77;4.45;;;8.70;99.90;;;;;;6223202;23;20194;-85
2021/11/08 01:01:20;;;;;;;10.80;3.60;;;8.70;99.90;;;;;;6224290;23;20175;-84
2021/11/08 01:03:49;;;;;;;11.38;4.60;;;8.60;99.90;;;;;;6224172;23;20175;-84
2021/11/08 01:06:17;;;;;;;5.85;2.22;;;8.60;99.90;;;;;;6223981;23;20251;-84
2021/11/08 01:08:46;;;;;;;12.75;3.10;;;8.60;99.90;;;;;;6224362;23;20262;-87
2021/11/08 01:11:14;;;;;;;24.65;5.07;;;8.60;99.90;;;;;;6222144;23;20180;-85
2021/11/08 01:13:43;;;;;;;12.43;2.80;;;8.70;99.90;;;;;;6222998;23;20192;-85
2021/11/08 01:16:10;;;;;;;7.80;2.35;;;8.60;99.90;;;;;;6223176;23;20186;-85
2021/11/08 01:18:38;;;;;;;14.60;2.53;;;8.60;99.90;;;;;;6223505;23;20182;-85
2021/11/08 01:21:07;;;;;;;24.17;3.70;;;8.60;99.90;;;;;;6224676;23;20213;-85
2021/11/08 01:23:34;;;;;;;16.52;2.72;;;8.60;99.90;;;;;;6223979;23;20567;-85
2021/11/08 01:26:06;;;;;;;12.25;3.60;;;8.50;99.90;;;;;;6225268;23;20175;-85
2021/11/08 01:28:36;;;;;;;13.23;3.10;;;8.50;99.90;;;;;;6224702;23;20581;-84
2021/11/08 01:31:04;;;;;;;9.48;2.72;;;8.50;99.90;;;;;;6224181;23;20258;-84
2021/11/08 01:33:31;;;;;;;14.05;3.20;;;8.60;99.90;;;;;;6223949;23;20202;-84
2021/11/08 01:36:09;;;;;;;14.05;3.97;;;8.60;99.90;;;;;;6223812;23;20176;-84
2021/11/08 01:38:40;;;;;;;7.45;2.75;;;8.70;99.90;;;;;;6223984;23;20171;-84
2021/11/08 01:41:10;;;;;;;9.43;3.15;;;8.70;99.90;;;;;;6224474;23;20164;-84
2021/11/08 01:43:37;;;;;;;18.13;3.60;;;8.60;99.90;;;;;;6224061;23;20155;-84
2021/11/08 01:46:05;;;;;;;11.55;3.28;;;8.60;99.90;;;;;;6228152;23;20178;-85
2021/11/08 01:48:33;;;;;;;12.05;2.80;;;8.60;99.90;;;;;;6227173;23;20219;-84
2021/11/08 01:51:01;;;;;;;12.75;2.90;;;8.60;99.90;;;;;;6227710;23;20193;-84
2021/11/08 01:53:28;;;;;;;18.25;3.35;;;8.60;99.90;;;;;;6228353;23;20187;-84
2021/11/08 01:55:56;;;;;;;13.52;3.40;;;8.60;99.90;;;;;;6229526;23;20174;-86
2021/11/08 01:58:27;;;;;;;9.10;3.53;;;8.60;99.90;;;;;;6229400;23;20210;-85
2021/11/08 02:00:55;;;;;;;9.57;2.85;;;8.60;99.90;;;;;;6229787;23;20163;-86
2021/11/08 02:03:22;;;;;;;14.07;2.88;;;8.60;99.90;;;;;;6233699;23;20202;-85
2021/11/08 02:05:50;;;;;;;11.95;2.20;;;8.60;99.90;;;;;;6233227;23;20207;-86
2021/11/08 02:08:20;;;;;;;20.58;3.33;;;8.70;99.90;;;;;;6230325;23;20183;-84
2021/11/08 02:10:48;;;;;;;8.48;2.03;;;8.70;99.90;;;;;;6232867;23;20227;-84
2021/11/08 02:13:16;;;;;;;7.93;2.08;;;8.70;99.90;;;;;;6231236;23;20263;-85
2021/11/08 02:15:45;;;;;;;8.55;2.13;;;8.70;99.90;;;;;;6230458;23;20172;-84
2021/11/08 02:18:13;;;;;;;10.32;3.10;;;8.70;99.90;;;;;;6231783;23;20183;-85
2021/11/08 02:20:45;;;;;;;26.38;3.30;;;8.70;99.90;;;;;;6229689;23;20178;-87
2021/11/08 02:23:12;;;;;;;15.75;2.83;;;8.60;99.90;;;;;;6229777;23;20205;-86
2021/11/08 02:25:40;;;;;;;9.80;2.83;;;8.60;99.90;;;;;;6230491;23;20258;-84
2021/11/08 02:28:09;;;;;;;9.90;2.50;;;8.70;99.90;;;;;;6234393;23;20549;-84
2021/11/08 02:30:38;;;;;;;18.17;3.38;;;8.70;99.90;;;;;;6234435;23;20635;-85
2021/11/08 02:33:08;;;;;;;11.35;2.88;;;8.70;99.90;;;;;;6231858;23;20199;-86
2021/11/08 02:35:35;;;;;;;11.63;2.90;;;8.80;99.90;;;;;;6239823;23;20166;-85
2021/11/08 02:38:04;;;;;;;8.95;2.78;;;8.70;99.90;;;;;;6238421;23;20223;-85
2021/11/08 02:40:32;;;;;;;18.60;3.90;;;8.60;99.90;;;;;;6235026;23;20175;-85
2021/11/08 02:43:01;;;;;;;9.32;2.97;;;8.60;99.90;;;;;;6234856;23;20214;-86
2021/11/08 02:45:29;;;;;;;6.25;2.25;;;8.50;99.90;;;;;;6233112;23;20176;-85
2021/11/08 02:47:57;;;;;;;15.50;4.93;;;8.50;99.90;;;;;;6232453;23;20238;-86
2021/11/08 02:50:28;;;;;;;13.50;2.60;;;8.50;99.90;;;;;;6236372;23;20183;-86
2021/11/08 02:52:56;;;;;;;14.40;3.40;;;8.50;99.90;;;;;;6236503;23;20199;-86
2021/11/08 02:55:27;;;;;;;18.48;5.28;;;8.40;99.90;;;;;;6237734;23;20186;-86
2021/11/08 02:57:55;;;;;;;9.02;2.85;;;8.40;99.90;;;;;;6231158;23;20167;-86
2021/11/08 03:00:24;;;;;;;8.88;2.85;;;8.30;99.90;;;;;;6230875;23;20191;-85
2021/11/08 03:02:51;;;;;;;14.15;3.00;;;8.30;99.90;;;;;;6230418;23;20281;-86
2021/11/08 03:05:29;;;;;;;17.13;2.88;;;8.30;99.90;;;;;;6228011;23;20172;-85
2021/11/08 03:07:56;;;;;;;13.50;3.28;;;8.30;99.90;;;;;;6230315;23;20190;-86
2021/11/08 03:10:26;;;;;;;12.23;3.00;;;8.20;99.90;;;;;;6227942;23;20182;-86
2021/11/08 03:12:56;;;;;;;12.70;2.53;;;8.20;99.90;;;;;;6229557;23;20254;-87
2021/11/08 03:15:41;;;;;;;11.55;2.92;;;8.30;99.90;;;;;;6231691;23;20192;-86
2021/11/08 03:18:12;;;;;;;16.00;2.97;;;8.20;99.90;;;;;;6234472;23;20467;-86
2021/11/08 03:20:39;;;;;;;11.48;2.40;;;8.20;99.90;;;;;;6234182;23;20175;-85
2021/11/08 03:23:08;;;;;;;15.85;2.70;;;8.20;99.90;;;;;;6235013;23;20209;-84
2021/11/08 03:25:44;;;;;;;15.15;3.08;;;8.20;99.90;;;;;;6235531;23;20559;-85
2021/11/08 03:28:12;;;;;;;22.88;3.58;;;8.20;99.90;;;;;;6235705;23;20163;-86
2021/11/08 03:30:43;;;;;;;14.45;3.03;;;8.20;99.90;;;;;;6227960;23;20183;-86
2021/11/08 03:33:12;;;;;;;8.77;2.95;;;8.20;99.90;;;;;;6227634;23;20273;-86
2021/11/08 03:35:40;;;;;;;16.02;4.45;;;8.20;99.90;;;;;;6227472;23;20512;-86
2021/11/08 03:38:09;;;;;;;7.93;3.05;;;8.10;99.90;;;;;;6227234;23;20190;-86
2021/11/08 03:40:40;;;;;;;15.70;2.90;;;8.10;99.90;;;;;;6226094;23;20192;-86
2021/11/08 03:43:10;;;;;;;7.72;2.78;;;8.10;99.90;;;;;;6225741;23;20199;-85
2021/11/08 03:45:38;;;;;;;9.40;2.72;;;8.10;99.90;;;;;;6224338;23;20190;-85
2021/11/08 03:48:08;;;;;;;17.20;3.28;;;8.10;99.90;;;;;;6226253;23;20250;-86
2021/11/08 03:50:40;;;;;;;21.27;4.00;;;8.10;99.90;;;;;;6225986;23;20187;-85
2021/11/08 03:53:08;;;;;;;10.52;2.83;;;8.10;99.90;;;;;;6226628;23;20207;-86
2021/11/08 03:55:37;;;;;;;8.65;3.25;;;8.10;99.90;;;;;;6223158;23;20685;-85
2021/11/08 03:58:05;;;;;;;20.30;3.60;;;8.00;99.90;;;;;;6221566;23;20178;-85
2021/11/08 04:00:32;;;;;;;12.20;2.63;;;8.00;99.90;;;;;;6221633;23;20206;-85
2021/11/08 04:03:01;;;;;;;9.07;2.50;;;8.00;99.90;;;;;;6224284;23;20199;-85
2021/11/08 04:05:32;;;;;;;12.93;3.10;;;8.00;99.90;;;;;;6226005;23;20174;-85
2021/11/08 04:08:02;;;;;;;12.52;2.75;;;8.00;99.90;;;;;;6226204;23;20502;-86
2021/11/08 04:10:29;;;;;;;11.13;3.65;;;7.90;99.90;;;;;;6224540;23;20210;-85
2021/11/08 04:13:04;;;;;;;13.48;2.58;;;7.90;99.90;;;;;;6222007;23;20213;-85
2021/11/08 04:15:36;;;;;;;11.32;2.63;;;7.90;99.90;;;;;;6219031;23;20183;-85
2021/11/08 04:18:06;;;;;;;14.07;2.42;;;8.00;99.90;;;;;;6221492;23;20175;-85
2021/11/08 04:20:33;;;;;;;12.82;2.90;;;8.00;99.90;;;;;;6221226;23;20214;-84
2021/11/08 04:23:01;;;;;;;10.90;2.47;;;8.00;99.90;;;;;;6240292;23;20254;-84
2021/11/08 04:25:28;;;;;;;8.32;3.65;;;8.00;99.90;;;;;;6230232;23;20189;-85
2021/11/08 04:27:58;;;;;;;11.63;3.78;;;8.00;99.90;;;;;;6225695;23;20214;-86
2021/11/08 04:30:27;;;;;;;6.30;2.60;;;8.00;99.90;;;;;;6225225;23;20167;-84
2021/11/08 04:33:16;;;;;;;9.30;2.85;;;8.00;99.90;;;;;;6225655;23;20202;-85
2021/11/08 04:35:48;;;;;;;8.05;2.45;;;8.10;99.90;;;;;;6226033;23;20249;-85
2021/11/08 04:38:27;;;;;;;22.85;3.80;;;8.10;99.90;;;;;;6227151;23;20166;-85
2021/11/08 04:41:06;;;;;;;14.45;2.88;;;8.10;99.90;;;;;;6224394;23;20265;-85
2021/11/08 04:43:49;;;;;;;20.33;2.97;;;8.10;99.90;;;;;;6225909;23;20610;-85
2021/11/08 04:49:12;;;;;;;7.60;2.30;;;8.10;99.90;;;;;;6228188;23;20217;-85
2021/11/08 04:51:48;;;;;;;8.10;2.65;;;8.00;99.90;;;;;;6235238;23;20309;-86
2021/11/08 04:54:23;;;;;;;7.97;2.25;;;8.00;99.90;;;;;;6243250;23;20213;-87
2021/11/08 05:31:01;;;;;;;8.93;2.83;;;7.70;99.90;;;;;;6235445;23;20177;-86
2021/11/08 05:33:29;;;;;;;14.60;3.50;;;7.70;99.90;;;;;;6242811;23;20174;-84
2021/11/08 05:35:57;;;;;;;10.68;2.70;;;7.80;99.90;;;;;;6236891;23;20182;-84
2021/11/08 05:38:25;;;;;;;6.70;2.60;;;7.80;99.90;;;;;;6236170;23;20583;-85
2021/11/08 05:40:52;;;;;;;8.88;3.45;;;7.80;99.90;;;;;;6232251;23;20186;-85
2021/11/08 05:43:25;;;;;;;9.77;2.50;;;7.90;99.90;;;;;;6225492;23;20195;-85
2021/11/08 05:45:52;;;;;;;13.00;3.55;;;7.80;99.90;;;;;;6224451;23;20181;-85
2021/11/08 05:48:19;;;;;;;9.48;3.00;;;7.80;99.90;;;;;;6226953;23;20197;-86
2021/11/08 05:50:48;;;;;;;8.40;2.25;;;7.80;99.90;;;;;;6227386;23;20498;-84
2021/11/08 05:53:15;;;;;;;12.52;5.13;;;7.80;99.90;;;;;;6237612;23;20201;-85
2021/11/08 05:55:47;;;;;;;15.77;3.00;;;7.80;99.90;;;;;;6236598;23;20187;-86
2021/11/08 05:58:29;;;;;;;17.90;3.13;;;7.80;99.90;;;;;;6238125;23;20173;-86
2021/11/08 06:51:25;;;;;;;10.93;3.28;;;7.60;99.90;;;;;;6228085;23;20653;-84
2021/11/08 06:53:58;;;;;;;16.15;6.20;;;7.60;99.90;;;;;;6229331;23;20220;-84
2021/11/08 06:56:29;;;;;;;15.32;3.83;;;7.70;99.90;;;;;;6227947;23;20174;-83
2021/11/08 06:58:57;;;;;;;15.85;3.63;;;7.80;99.90;;;;;;6231188;23;20174;-84
2021/11/08 07:01:28;;;;;;;9.40;2.53;;;7.90;99.90;;;;;;6229312;23;20182;-83
2021/11/08 07:03:55;;;;;;;13.40;3.05;;;8.10;99.90;;;;;;6230570;23;20183;-83
2021/11/08 07:06:23;;;;;;;15.98;4.05;;;8.20;99.90;;;;;;6231531;23;20210;-86
2021/11/08 07:08:50;;;;;;;11.68;3.25;;;8.40;99.90;;;;;;6231646;23;20356;-83
2021/11/08 07:14:08;;;;;;;8.00;2.50;;;8.40;99.90;;;;;;6220889;23;20190;-84
2021/11/08 07:16:40;;;;;;;13.40;2.50;;;8.50;99.90;;;;;;6228021;23;20179;-85
2021/11/08 07:19:08;;;;;;;9.90;2.75;;;8.50;99.90;;;;;;6228522;23;20179;-83
2021/11/08 07:21:36;;;;;;;13.90;3.35;;;8.30;99.90;;;;;;6228750;23;20202;-83
2021/11/08 07:24:03;;;;;;;10.98;2.83;;;8.40;99.90;;;;;;6229662;23;20548;-81
2021/11/08 07:26:32;;;;;;;9.57;2.80;;;8.30;99.90;;;;;;6230263;23;20661;-83
2021/11/08 07:29:00;;;;;;;9.38;2.45;;;8.30;99.90;;;;;;6226459;23;20642;-83
2021/11/08 07:31:28;;;;;;;7.53;2.78;;;8.30;99.90;;;;;;6225410;23;20199;-84
2021/11/08 07:34:06;;;;;;;16.50;5.53;;;8.50;99.90;;;;;;6225781;23;20215;-88
2021/11/08 07:37:02;;;;;;;27.15;3.38;;;8.80;99.90;;;;;;6222834;23;20533;-86
2021/11/08 07:39:32;;;;;;;9.30;2.45;;;9.50;99.90;;;;;;6226742;23;20177;-86
2021/11/08 07:41:59;;;;;;;15.52;3.35;;;10.30;99.90;;;;;;6222403;23;20198;-85
2021/11/08 07:44:27;;;;;;;8.52;2.25;;;10.70;99.90;;;;;;6220296;23;20178;-85
2021/11/08 07:46:56;;;;;;;12.93;3.65;;;10.80;99.90;;;;;;6220510;23;20176;-83
2021/11/08 07:49:27;;;;;;;18.15;3.15;;;10.70;99.90;;;;;;6222611;23;20207;-83
2021/11/08 07:51:57;;;;;;;9.70;2.70;;;10.40;99.90;;;;;;6223793;23;20188;-84
2021/11/08 07:54:34;;;;;;;;;;;;;;;;;;;;;
2021/11/08 07:57:03;;;;;;;12.88;3.70;;;9.50;99.90;;;;;;6219389;23;20203;-83
2021/11/08 07:59:30;;;;;;;13.45;3.15;;;9.50;99.90;;;;;;6222700;23;20252;-84
2021/11/08 08:02:11;;;;;;;6.30;3.00;;;9.50;99.90;;;;;;6223344;23;20211;-85
2021/11/08 08:04:39;;;;;;;8.52;2.50;;;9.40;99.90;;;;;;6222731;23;20533;-84
2021/11/08 08:07:06;;;;;;;8.02;2.33;;;9.60;99.90;;;;;;6222047;23;20635;-84
2021/11/08 08:09:35;;;;;;;6.47;1.80;;;10.00;99.90;;;;;;6222666;23;20210;-83
2021/11/08 08:12:05;;;;;;;7.50;2.15;;;11.10;99.90;;;;;;6221249;23;20199;-83
2021/11/08 08:14:32;;;;;;;9.65;2.63;;;12.30;99.90;;;;;;6221686;23;20203;-83
2021/11/08 08:17:04;;;;;;;7.20;2.70;;;13.00;99.90;;;;;;6223040;23;20166;-83
2021/11/08 08:19:32;;;;;;;8.48;3.00;;;13.10;99.90;;;;;;6221710;23;20753;-83
2021/11/08 08:22:10;;;;;;;10.60;2.60;;;12.80;99.90;;;;;;6221657;23;20219;-83
2021/11/08 08:25:02;;;;;;;6.03;1.92;;;12.20;99.90;;;;;;6223001;23;20182;-83
2021/11/08 08:27:32;;;;;;;11.77;3.35;;;11.70;99.90;;;;;;6220752;23;20622;-83
2021/11/08 08:30:03;;;;;;;18.63;3.05;;;11.80;99.90;;;;;;6229267;23;20182;-83
2021/11/08 08:32:31;;;;;;;10.93;2.80;;;11.60;99.90;;;;;;6231854;23;20199;-84
2021/11/08 08:35:04;;;;;;;9.55;2.90;;;11.40;99.90;;;;;;6231424;23;20196;-84
2021/11/08 08:37:36;;;;;;;9.40;3.90;;;11.20;99.90;;;;;;6229310;23;20243;-83
2021/11/08 08:40:05;;;;;;;6.38;2.15;;;10.80;99.90;;;;;;6223657;23;20164;-84
2021/11/08 08:42:47;;;;;;;14.75;3.20;;;11.10;99.90;;;;;;6221007;23;20225;-84
2021/11/08 08:45:27;;;;;;;10.15;2.60;;;11.50;99.90;;;;;;6221226;23;20169;-83
2021/11/08 08:47:57;;;;;;;7.82;1.95;;;11.50;99.90;;;;;;6221473;23;20806;-82
2021/11/08 08:50:54;;;;;;;11.82;2.75;;;11.20;99.90;;;;;;6221452;23;20188;-84
2021/11/08 08:53:36;;;;;;;11.32;2.50;;;10.90;99.90;;;;;;6221702;23;20206;-84
2021/11/08 08:56:08;;;;;;;7.05;2.17;;;10.90;99.90;;;;;;6220953;23;20252;-84
2021/11/08 08:58:39;;;;;;;6.25;2.10;;;11.20;99.90;;;;;;6228262;23;20175;-84
2021/11/08 09:01:12;;;;;;;13.27;2.58;;;11.20;99.90;;;;;;6220753;23;20181;-84
2021/11/08 09:09:18;;;;;;;5.20;2.40;;;11.30;99.90;;;;;;6220701;23;20173;-84
2021/11/08 09:11:55;;;;;;;6.90;2.15;;;11.10;99.90;;;;;;6223223;23;20185;-84
2021/11/08 09:14:50;;;;;;;6.22;1.92;;;11.10;99.90;;;;;;6222588;23;20221;-84
2021/11/08 09:18:00;;;;;;;8.10;2.55;;;11.10;99.90;;;;;;6221756;23;20272;-84
2021/11/08 09:20:41;;;;;;;12.93;2.90;;;10.90;99.90;;;;;;6222377;23;20292;-83
2021/11/08 09:26:34;;;;;;;12.57;2.78;;;10.90;99.90;;;;;;6208312;23;20182;-84
2021/11/08 09:29:42;;;;;;;11.15;3.00;;;10.70;99.90;;;;;;6221063;23;20629;-85
2021/11/08 09:32:25;;;;;;;9.75;2.25;;;10.80;99.90;;;;;;6222328;23;20971;-84
2021/11/08 09:35:12;;;;;;;11.85;2.78;;;10.60;99.90;;;;;;6224705;23;20195;-83
2021/11/08 09:38:09;;;;;;;13.55;2.92;;;10.70;99.90;;;;;;6232064;23;20164;-85
2021/11/08 09:41:39;;;;;;;14.68;3.00;;;10.90;99.90;;;;;;6235477;23;20257;-83
2021/11/08 09:51:10;;;;;;;12.65;4.40;;;11.30;99.90;;;;;;6216147;23;20173;-83
2021/11/08 10:35:07;;;;;;;;;;;;;;;;;;;;;
2021/11/08 10:44:27;;;;;;;12.45;2.28;;;11.30;99.90;;;;;;6049987;23;20232;-84
2021/11/08 10:47:39;;;;;;;;;;;;;;;;;;;;;
2021/11/08 10:50:27;;;;;;;9.35;2.58;;;11.40;99.90;;;;;;6128137;23;20185;-84
2021/11/08 10:53:19;;;;;;;7.28;2.72;;;11.50;99.90;;;;;;6143576;23;20227;-84
2021/11/08 10:56:14;;;;;;;10.27;2.20;;;11.40;99.90;;;;;;6146803;23;20359;-84
2021/11/08 11:02:07;;;;;;;6.18;2.70;;;11.20;99.90;;;;;;6135883;23;20185;-84
2021/11/08 11:04:59;;;;;;;6.78;2.13;;;11.30;99.90;;;;;;6234462;23;20175;-83
2021/11/08 11:07:41;;;;;;;6.25;3.40;;;11.20;99.90;;;;;;6228605;23;20213;-84
2021/11/08 11:10:17;;;;;;;9.85;3.05;;;11.40;99.90;;;;;;6231535;23;20175;-84
2021/11/08 11:12:53;;;;;;;7.75;2.67;;;11.30;99.90;;;;;;6225523;23;20711;-84
2021/11/08 11:18:16;;;;;;;5.10;2.42;;;11.40;99.90;;;;;;6220198;23;20180;-84
2021/11/08 11:20:48;;;;;;;7.55;2.13;;;11.40;99.90;;;;;;6224084;23;20173;-86
2021/11/08 11:23:25;;;;;;;16.38;3.88;;;11.40;99.90;;;;;;6223199;23;20312;-84
2021/11/08 11:26:03;;;;;;;8.82;2.47;;;11.40;99.90;;;;;;6222720;23;20233;-84
2021/11/08 11:28:35;;;;;;;10.40;1.90;;;11.40;99.90;;;;;;6222402;23;20673;-85
2021/11/08 11:31:14;;;;;;;11.00;2.80;;;11.30;99.90;;;;;;6222883;23;20629;-84
2021/11/08 11:33:42;;;;;;;10.10;2.55;;;11.30;99.90;;;;;;6222042;23;20520;-84
2021/11/08 11:36:11;;;;;;;7.45;3.25;;;11.40;99.90;;;;;;6222123;23;20493;-84
2021/11/08 11:38:44;;;;;;;9.48;2.35;;;11.50;99.90;;;;;;6220949;23;20173;-85
2021/11/08 11:41:15;;;;;;;10.57;2.55;;;11.40;99.90;;;;;;6221067;23;20180;-84
2021/11/08 11:43:45;;;;;;;8.68;2.10;;;11.40;99.90;;;;;;6221253;23;20261;-85
2021/11/08 11:46:16;;;;;;;7.32;2.53;;;11.30;99.90;;;;;;6220657;23;20187;-84
2021/11/08 11:51:33;;;;;;;3.88;1.63;;;11.10;99.90;;;;;;6223464;23;20666;-83
2021/11/08 11:54:08;;;;;;;6.40;2.40;;;11.30;99.90;;;;;;6222353;23;20193;-84
2021/11/08 11:56:45;;;;;;;6.85;1.70;;;11.40;99.90;;;;;;6223940;23;20254;-85
2021/11/08 11:59:16;;;;;;;6.72;2.58;;;11.30;99.90;;;;;;6226194;23;20180;-84
2021/11/08 12:01:44;;;;;;;3.60;2.60;;;11.60;99.90;;;;;;6225811;23;20231;-84
2021/11/08 12:04:13;;;;;;;2.75;1.50;;;11.40;99.90;;;;;;6228022;23;20241;-85
2021/11/08 12:06:44;;;;;;;9.77;4.05;;;11.50;99.90;;;;;;6226113;23;20178;-84
2021/11/08 12:09:17;;;;;;;5.03;2.42;;;11.60;99.90;;;;;;6226888;23;20178;-85
2021/11/08 12:11:54;;;;;;;5.63;2.47;;;11.70;99.90;;;;;;6225560;23;20209;-85
2021/11/08 12:14:29;;;;;;;5.40;3.85;;;11.80;99.90;;;;;;6225938;23;20181;-83
2021/11/08 12:16:58;;;;;;;8.82;2.72;;;11.80;99.90;;;;;;6230160;23;20246;-84
2021/11/08 12:19:29;;;;;;;4.05;2.10;;;11.60;99.90;;;;;;6225902;23;20555;-84
2021/11/08 12:21:56;;;;;;;9.43;3.17;;;11.90;99.90;;;;;;6223768;23;20246;-83
2021/11/08 12:24:29;;;;;;;6.38;2.03;;;11.70;99.90;;;;;;6231784;23;20170;-84
2021/11/08 12:27:08;;;;;;;3.80;1.75;;;11.80;99.90;;;;;;6231743;23;20164;-84
2021/11/08 12:29:47;;;;;;;5.88;1.90;;;11.70;99.90;;;;;;6231312;23;20194;-83
2021/11/08 12:32:14;;;;;;;3.78;1.83;;;11.60;99.90;;;;;;6224496;23;20283;-84
2021/11/08 12:34:45;;;;;;;7.03;3.80;;;11.60;99.90;;;;;;6223082;23;20174;-83
2021/11/08 12:37:12;;;;;;;7.25;2.55;;;11.50;99.90;;;;;;6222464;23;20189;-85
2021/11/08 12:39:56;;;;;;;7.28;3.55;;;11.40;99.90;;;;;;6222401;23;20183;-84
2021/11/08 12:42:24;;;;;;;8.02;3.97;;;11.30;99.90;;;;;;6222223;23;20271;-85
2021/11/08 12:44:52;;;;;;;11.70;4.88;;;11.30;99.90;;;;;;6223013;23;20255;-83
2021/11/08 12:47:30;;;;;;;9.05;2.50;;;11.40;99.90;;;;;;6223115;23;20237;-83
2021/11/08 12:49:57;;;;;;;8.90;3.90;;;11.40;99.90;;;;;;6223443;23;20171;-83
2021/11/08 12:52:27;;;;;;;3.25;2.35;;;11.30;99.90;;;;;;6224073;23;20258;-85
2021/11/08 12:55:02;;;;;;;6.55;1.70;;;11.40;99.90;;;;;;6224420;23;20186;-83
2021/11/08 12:57:31;;;;;;;2.50;1.50;;;11.40;99.90;;;;;;6224539;23;20530;-85
2021/11/08 12:59:59;;;;;;;6.20;2.03;;;11.30;99.90;;;;;;6224297;23;20255;-85
2021/11/08 13:02:30;;;;;;;5.90;1.50;;;11.30;99.90;;;;;;6222981;23;20259;-85
2021/11/08 13:04:58;;;;;;;2.88;1.42;;;11.30;99.90;;;;;;6223820;23;20193;-86
2021/11/08 13:07:34;;;;;;;5.80;1.65;;;11.40;99.90;;;;;;6224471;23;20184;-85
2021/11/08 13:10:06;;;;;;;8.90;3.08;;;11.50;99.90;;;;;;6224880;23;20156;-85
2021/11/08 13:12:35;;;;;;;22.80;11.48;;;11.60;99.90;;;;;;6223081;23;20197;-84
2021/11/08 13:15:08;;;;;;;5.20;1.80;;;11.70;99.90;;;;;;6223347;23;20217;-84
2021/11/08 13:17:54;;;;;;;7.15;2.05;;;11.80;99.90;;;;;;6223161;23;20229;-83
2021/11/08 13:20:22;;;;;;;3.95;1.98;;;11.80;99.90;;;;;;6227056;23;20158;-84
2021/11/08 13:23:28;;;;;;;13.18;3.50;;;11.70;99.90;;;;;;6226173;23;20226;-83
2021/11/08 13:26:03;;;;;;;9.50;2.40;;;11.70;99.90;;;;;;6226607;23;20197;-86
2021/11/08 13:28:32;;;;;;;6.65;1.85;;;11.70;99.90;;;;;;6226166;23;20508;-84
2021/11/08 13:31:04;;;;;;;14.30;2.88;;;11.70;99.90;;;;;;6225335;23;20176;-86
2021/11/08 13:34:13;;;;;;;5.72;2.00;;;11.60;99.90;;;;;;6226752;23;20980;-84
2021/11/08 13:36:41;;;;;;;4.95;1.65;;;11.50;99.90;;;;;;6232025;23;20197;-84
2021/11/08 13:39:09;;;;;;;11.95;2.92;;;11.70;99.90;;;;;;6234897;23;20176;-87
2021/11/08 13:41:39;;;;;;;3.03;1.55;;;11.80;99.90;;;;;;6235563;23;20194;-86
2021/11/08 13:44:09;;;;;;;4.90;1.92;;;11.70;99.90;;;;;;6232787;23;20174;-85
2021/11/08 13:46:38;;;;;;;7.80;3.10;;;11.70;99.90;;;;;;6226566;23;20165;-86
2021/11/08 13:49:08;;;;;;;5.85;4.05;;;11.80;99.90;;;;;;6227629;23;20180;-83
2021/11/08 13:51:42;;;;;;;5.63;3.40;;;11.70;99.90;;;;;;6226028;23;20199;-84
2021/11/08 13:54:17;;;;;;;6.00;2.13;;;11.70;99.90;;;;;;6225636;23;20263;-84
2021/11/08 13:56:51;;;;;;;7.15;2.38;;;11.80;99.90;;;;;;6230116;23;20629;-86
2021/11/08 13:59:24;;;;;;;9.80;2.30;;;11.80;99.90;;;;;;6232034;23;20177;-84
2021/11/08 14:04:49;;;;;;;8.13;2.63;;;11.90;99.90;;;;;;6239920;23;20201;-86
2021/11/08 14:07:24;;;;;;;7.93;2.40;;;12.00;99.90;;;;;;6243028;23;20305;-85
2021/11/08 14:09:52;;;;;;;4.47;2.40;;;12.00;99.90;;;;;;6242450;23;20207;-85
2021/11/08 14:12:22;;;;;;;4.97;1.85;;;12.00;99.90;;;;;;6217604;23;20217;-75
2021/11/08 14:14:50;;;;;;;4.18;1.70;;;12.00;99.90;;;;;;6214943;23;20237;-73
2021/11/08 14:17:19;;;;;;;6.30;2.42;;;11.90;99.90;;;;;;6214128;23;20243;-74
2021/11/08 14:19:48;;;;;;;7.88;2.55;;;11.80;99.90;;;;;;6214579;23;20166;-75
2021/11/08 14:22:15;;;;;;;5.20;2.00;;;11.70;99.90;;;;;;6214867;23;20411;-75
2021/11/08 14:24:45;;;;;;;2.90;1.70;;;11.60;99.90;;;;;;6214691;23;20284;-75
2021/11/08 14:27:14;;;;;;;3.33;1.70;;;11.70;99.90;;;;;;6213166;23;20197;-74
2021/11/08 14:29:43;;;;;;;9.80;2.60;;;11.70;99.90;;;;;;6213489;23;20239;-74
2021/11/08 14:32:12;;;;;;;10.85;3.30;;;11.60;99.90;;;;;;6213412;23;20167;-74
2021/11/08 14:34:44;;;;;;;5.97;2.63;;;11.60;99.90;;;;;;6213063;23;20255;-74
2021/11/08 14:37:17;;;;;;;4.43;1.70;;;11.70;99.90;;;;;;6212548;23;20640;-74
2021/11/08 14:39:46;;;;;;;7.53;2.63;;;11.70;99.90;;;;;;6213744;23;20245;-74
2021/11/08 14:42:17;;;;;;;9.02;2.70;;;11.70;99.90;;;;;;6213173;23;20167;-74
2021/11/08 14:44:47;;;;;;;9.30;2.90;;;11.80;99.90;;;;;;6214976;23;20237;-73
2021/11/08 14:47:20;;;;;;;13.23;2.65;;;11.80;99.90;;;;;;6213874;23;20159;-74
2021/11/08 14:49:55;;;;;;;8.10;2.63;;;11.80;99.90;;;;;;6214711;23;20546;-75
2021/11/08 14:52:31;;;;;;;3.03;1.92;;;11.70;99.90;;;;;;6215200;23;20228;-75
2021/11/08 14:54:58;;;;;;;6.20;2.65;;;11.70;99.90;;;;;;6214210;23;20245;-75
2021/11/08 14:57:25;;;;;;;5.35;2.33;;;11.70;99.90;;;;;;6214383;23;20247;-74
2021/11/08 14:59:56;;;;;;;9.07;3.13;;;11.60;99.90;;;;;;6214930;23;20171;-74
2021/11/08 15:02:26;;;;;;;7.68;2.50;;;11.60;99.90;;;;;;6214975;23;20245;-75
2021/11/08 15:04:56;;;;;;;3.80;1.88;;;11.60;99.90;;;;;;6214183;23;20538;-74
2021/11/08 15:07:34;;;;;;;3.33;1.77;;;11.50;99.90;;;;;;6213351;23;20169;-75
2021/11/08 15:10:06;;;;;;;8.18;2.05;;;11.40;99.90;;;;;;6214044;23;20248;-74
2021/11/08 15:12:36;;;;;;;9.98;2.08;;;11.40;99.90;;;;;;6214070;23;20200;-74
2021/11/08 15:15:07;;;;;;;5.43;2.25;;;11.30;99.90;;;;;;6212649;23;20283;-74
2021/11/08 15:17:37;;;;;;;10.13;2.10;;;11.30;99.90;;;;;;6214189;23;20222;-73
2021/11/08 15:20:11;;;;;;;9.32;1.90;;;11.30;99.90;;;;;;6214689;23;20227;-74
2021/11/08 15:22:39;;;;;;;4.82;2.90;;;11.10;99.90;;;;;;6214133;23;20541;-75
2021/11/08 15:25:12;;;;;;;5.15;1.70;;;11.10;99.90;;;;;;6213744;23;20204;-74
2021/11/08 15:27:40;;;;;;;8.68;2.03;;;11.00;99.90;;;;;;6214498;23;20240;-75
2021/11/08 15:30:10;;;;;;;5.50;2.22;;;11.10;99.90;;;;;;6214508;23;20162;-75
2021/11/08 15:32:37;;;;;;;6.28;2.33;;;11.00;99.90;;;;;;6215387;23;20166;-75
2021/11/08 15:35:14;;;;;;;3.78;1.70;;;11.00;99.90;;;;;;6214616;23;20198;-74
2021/11/08 15:37:52;;;;;;;8.60;2.15;;;10.90;99.90;;;;;;6214563;23;20503;-75
2021/11/08 15:40:20;;;;;;;6.25;2.42;;;11.00;99.90;;;;;;6214662;23;20226;-74
2021/11/08 15:42:47;;;;;;;6.60;2.55;;;10.90;99.90;;;;;;6213977;23;20168;-74
2021/11/08 15:45:15;;;;;;;8.60;3.10;;;10.90;99.90;;;;;;6212715;23;20204;-75
2021/11/08 15:47:42;;;;;;;8.05;2.63;;;10.80;99.90;;;;;;6214042;23;20320;-74
2021/11/08 15:50:10;;;;;;;9.95;2.40;;;10.80;99.90;;;;;;6214626;23;20168;-75
2021/11/08 15:52:38;;;;;;;6.70;1.75;;;10.80;99.90;;;;;;6215095;23;20218;-75
2021/11/08 15:55:06;;;;;;;3.15;1.60;;;10.80;99.90;;;;;;6213941;23;20196;-74
2021/11/08 15:57:34;;;;;;;7.03;1.75;;;10.70;99.90;;;;;;6213992;23;20196;-74
2021/11/08 16:00:02;;;;;;;13.98;3.53;;;10.80;99.90;;;;;;6214078;23;20208;-74
2021/11/08 16:02:36;;;;;;;9.50;3.03;;;10.80;99.90;;;;;;6213690;23;20187;-74